首页
METAR-TAF:

METAR-TAF

机场 :

Williamsburg-Jamestown Airport

威廉斯堡, 弗吉尼亚州, 美国

纬度: 37-14-21N, 经度: 076-42-57W, 海拔: 15米

当前天气观测

该预报发布于16分钟前的16:55 UTC
风速6节,风向西
温度 9°C
湿度 53%
气压 1022 hPa
能見度: 16.1公里
天空无云

METAR: KJGG 161655Z AUTO 28006KT 10SM CLR 09/00 A3017 RMK AO1

时间: 12:11 (17:11 UTC)


TAF: 丢失

超过4000个机场的气象观测和天气预报(METAR&TAF报告)。

可查询的气象台以黄色和红色小点在地图上表示。

将鼠标移到小点上方,可查看气象台名称。

然后点击查看天气观测和预报。

如需切换地图:点击带黑十字的绿色按钮放大地图;点击带横线的绿色按钮缩小地图;或者点击绿色箭头查看邻近地区的地图。


METAR-TAF: